Yosemite National Park, CA

10:46 PM PDT on August 30, 2014 (GMT -0700)
RAWS WAWONA CA US | Change Station
CLOSE
Current Station
Personal Weather Station
Location: Tuolumne Meadows, CA
Elevation: 4309 ft
Nearby Weather Stations

Elev 4309 ft 37.53 °N, 119.64 °W | Updated 55 minutes ago

Clear
Clear
64 °F
Feels Like 64 °F
N
0
Wind Variable Wind from North
Gusts 2.0 mph

Today
High -- | Low -- °F
--% Chance of Precip.
Yesterday
High -- | Low -- °F
Precip. -- in
6:26 AM 7:30 PM
Waxing Crescent, 28% visible
Pressure 29.92 in
Visibility 10.0 miles
Clouds Clear
Dew Point 34 °F
Humidity 32%
Rainfall 0.00 in
Snow Depth Not available.
UV 0 out of 12
Pollen 9.90 out of 12
Air Quality Not available.
Flu Activity Not available.
METAR KO22 310515Z AUTO 00000KT 10SM CLR 18/03 A2992 RMK AO1

More Conditions Fewer Conditions

Pressure 29.92 in
Visibility 10.0 miles
Clouds Clear
Dew Point 34 °F
Humidity 32%
Rainfall 0.00 in
Snow Depth Not available.
UV 0 out of 12
Pollen 9.90 out of 12
Air Quality Not available.
Flu Activity Not available.
METAR KO22 310515Z AUTO 00000KT 10SM CLR 18/03 A2992 RMK AO1

More Conditions Fewer Conditions

10-Day Weather Forecast

Almanac

Astronomy

Aug. 30, 2014 Rise Set
Actual Time 6:26 AM PDT 7:30 PM PDT
Civil Twilight 5:59 AM PDT 7:57 PM PDT
Nautical Twilight 5:27 AM PDT 8:29 PM PDT
Astronomical Twilight 4:54 AM PDT 9:02 PM PDT
Moon 11:13 AM PDT (8/30) 10:14 PM PDT (8/30)
Length of Visible Light 13h 57m
Length of Day
13h 03m
Tomorrow will be 2m 19s shorter.
Waxing Crescent, 28% of the Moon is Illuminated
Aug 31
Waxing Crescent
Sep 2
First Quarter
Sep 8
Full
Sep 15
Last Quarter
Sep 24
New

Yesterday's Extremes

State Highs State Lows

Community

WunderPhotos

Upload Photos

1,748,790 photos uploaded!

Nearby

Snow Depth

Station Depth Elevation
Leavitt Lake 0 in 9400 ft
Leavitt Meadows 0 in 7200 ft
Summit Meadow 1 in 9122 ft
Blue Lakes 0 in 8000 ft
Monitor Pass 0 in 8350 ft

Earthquake Activity

City Distance Mag. Time & Date
Gonzales, California 119 miles 2.7 9:48 PM PDT
2014-08-30
Ridgemark, California 120 miles 3.4 4:32 PM PDT
2014-08-29
Ridgemark, California 120 miles 3.0 2:44 PM PDT
2014-08-29
Orange Cove, California 80 miles 2.5 7:48 AM PDT
2014-08-29
Minimum magnitude displayed is 2.5.

Coastal Water Temperatures

Place Temperature
No Stations Reporting

Nearby Weather Stations